ARG1372 SPJC-MMUN
Flight info
| Callsign | ARG1372 |
|---|---|
| Flight time | N/A |
| Altitude | 34000 |
| Route | ISREN UM542 ATENO UL203 LIXAS UZ512 RADIM/N0461F360 DCT SIGMA SIGMA2G |
| Aircraft | B38M/M-MSDFGHILORVW/SB1 |
Departure
| Time | N/A |
|---|---|
| Airport | Jorge Chávez International Airport (SPJC) |
Arrival
| Time | 2026-04-30 11:25 |
|---|---|
| Airport | Cancún International Airport (MMUN) |
| Time | Latitude | Longitude | Altitude | Speed | Heading |
|---|---|---|---|---|---|
| 2026-04-30 11:14 | 21.02952 | -87.04067 | 3252 ft | 256 kts | 306° |
| 2026-04-30 11:14 | 21.03980 | -87.05569 | 3199 ft | 245 kts | 305° |
| 2026-04-30 11:14 | 21.04962 | -87.07022 | 2959 ft | 242 kts | 305° |
| 2026-04-30 11:14 | 21.05949 | -87.08490 | 2597 ft | 244 kts | 305° |
| 2026-04-30 11:15 | 21.06935 | -87.09964 | 2347 ft | 242 kts | 305° |
| 2026-04-30 11:15 | 21.07903 | -87.11414 | 2150 ft | 237 kts | 305° |
| 2026-04-30 11:15 | 21.08834 | -87.12841 | 2055 ft | 227 kts | 303° |
| 2026-04-30 11:15 | 21.09686 | -87.14213 | 2035 ft | 217 kts | 303° |
| 2026-04-30 11:16 | 21.10499 | -87.15518 | 2057 ft | 203 kts | 303° |
| 2026-04-30 11:16 | 21.11255 | -87.16731 | 2013 ft | 196 kts | 303° |
| 2026-04-30 11:16 | 21.12007 | -87.17937 | 1994 ft | 194 kts | 303° |
| 2026-04-30 11:16 | 21.12758 | -87.19138 | 1995 ft | 194 kts | 303° |
| 2026-04-30 11:17 | 21.13710 | -87.20139 | 1978 ft | 190 kts | 330° |
| 2026-04-30 11:17 | 21.14924 | -87.20478 | 1999 ft | 178 kts | 2° |
| 2026-04-30 11:17 | 21.16077 | -87.20079 | 1971 ft | 175 kts | 34° |
| 2026-04-30 11:17 | 21.16872 | -87.19109 | 1977 ft | 175 kts | 65° |
| 2026-04-30 11:18 | 21.17095 | -87.17842 | 1992 ft | 175 kts | 96° |
| 2026-04-30 11:18 | 21.16749 | -87.15256 | 2039 ft | 176 kts | 98° |
| 2026-04-30 11:18 | 21.16598 | -87.13955 | 2016 ft | 176 kts | 97° |
| 2026-04-30 11:19 | 21.16453 | -87.12657 | 2007 ft | 175 kts | 97° |
| 2026-04-30 11:19 | 21.16313 | -87.11359 | 2007 ft | 176 kts | 97° |
| 2026-04-30 11:19 | 21.16177 | -87.10059 | 2007 ft | 176 kts | 97° |
| 2026-04-30 11:19 | 21.16042 | -87.08756 | 2004 ft | 176 kts | 97° |
| 2026-04-30 11:20 | 21.15835 | -87.07473 | 1974 ft | 175 kts | 115° |
| 2026-04-30 11:20 | 21.15218 | -87.06367 | 2011 ft | 174 kts | 123° |
| 2026-04-30 11:20 | 21.14561 | -87.05273 | 2044 ft | 175 kts | 124° |
| 2026-04-30 11:20 | 21.13900 | -87.04182 | 2027 ft | 175 kts | 124° |
| 2026-04-30 11:21 | 21.13234 | -87.03094 | 2010 ft | 174 kts | 124° |
| 2026-04-30 11:21 | 21.12568 | -87.02008 | 2003 ft | 174 kts | 124° |
| 2026-04-30 11:21 | 21.11903 | -87.00930 | 2010 ft | 169 kts | 124° |
| 2026-04-30 11:21 | 21.11264 | -86.99897 | 2035 ft | 165 kts | 124° |
| 2026-04-30 11:22 | 21.10631 | -86.98877 | 2009 ft | 164 kts | 125° |
| 2026-04-30 11:22 | 21.10007 | -86.97891 | 1928 ft | 158 kts | 125° |
| 2026-04-30 11:22 | 21.09407 | -86.96932 | 1728 ft | 153 kts | 125° |
| 2026-04-30 11:22 | 21.08819 | -86.95988 | 1537 ft | 152 kts | 125° |
| 2026-04-30 11:23 | 21.08426 | -86.95366 | 1405 ft | 152 kts | 125° |
| 2026-04-30 11:23 | 21.07848 | -86.94423 | 1201 ft | 152 kts | 123° |
| 2026-04-30 11:23 | 21.06494 | -86.92236 | 746 ft | 149 kts | 125° |
| 2026-04-30 11:24 | 21.06112 | -86.91626 | 630 ft | 149 kts | 125° |
| 2026-04-30 11:24 | 21.05539 | -86.90706 | 452 ft | 148 kts | 124° |
| 2026-04-30 11:24 | 21.04973 | -86.89789 | 263 ft | 146 kts | 125° |
| 2026-04-30 11:25 | 21.03885 | -86.88065 | 36 ft | 114 kts | 124° |
| 2026-04-30 11:25 | 21.03573 | -86.87566 | 39 ft | 51 kts | 124° |
| 2026-04-30 11:25 | 21.03545 | -86.87373 | 37 ft | 8 kts | 333° |
| 2026-04-30 11:26 | 21.03549 | -86.87375 | 37 ft | 0 kts | 333° |
| 2026-04-30 11:28 | 21.03557 | -86.87380 | 36 ft | 4 kts | 333° |
| 2026-04-30 11:29 | 21.03587 | -86.87385 | 36 ft | 4 kts | 33° |
| 2026-04-30 11:29 | 21.03618 | -86.87344 | 34 ft | 10 kts | 79° |
| 2026-04-30 11:29 | 21.03528 | -86.87181 | 33 ft | 16 kts | 124° |
| 2026-04-30 11:30 | 21.03387 | -86.86957 | 32 ft | 18 kts | 124° |
| 2026-04-30 11:30 | 21.03349 | -86.86849 | 32 ft | 16 kts | 60° |
| 2026-04-30 11:30 | 21.03427 | -86.86787 | 32 ft | 12 kts | 33° |
| 2026-04-30 11:31 | 21.03500 | -86.86783 | 31 ft | 12 kts | 336° |
| 2026-04-30 11:31 | 21.03541 | -86.86801 | 31 ft | 1 kts | 337° |
| 2026-04-30 11:31 | 21.03553 | -86.86807 | 31 ft | 2 kts | 337° |
| 2026-04-30 11:31 | 21.03554 | -86.86807 | 31 ft | 0 kts | 337° |